Toncontín International Airport (TGU/MHTG)


Airport Information
Location: Tegucigalpa,
Coordinates: 14.0609 / -87.2172
Field Elevation: 3,291ft
Longest Runway: 6,637ft
ILS Approaches: NO
Landing Fees: $1,386 per flight
Jet A Price: $0.49/lbs

Current Weather
METAR: MHTG 011100Z 05003KT 9999 SCT028 SCT080 19/17 Q1016 A3000 NOSIG
TAF: TAF MHTG 010420Z 0106/0206 02004KT 9999 BKN028 TX27/0119Z TN17/0112Z FM011900 VRB05KT 7000 RA SCT034TCU FM020100 5000 RA SCT027 BKN090 FM020400 9999 NSW FEW009 BKN024

No chart available
Flight Arriving
CPX776 KMIA - Miami International Airport
United StatesFlorida Miami, Florida
Flight Aircraft Departing
CPX768
KMIA - Miami International Airport
United StatesFlorida Miami, Florida



Recent Arrivals
Date Flight Type Depart
08/01/2022 CPX768 B738 Miami Intl (KMIA)
07/02/2022 CPX3151 B738 Benito Juárez Intl (MMMX)
01/31/2022 CPX3151 B762 Benito Juárez Intl (MMMX)
Recent Departures
Date Flight Type Arrive
08/02/2022 CPX776 B738 Miami Intl (KMIA)
07/02/2022 CPX3152 B738 Benito Juárez Intl (MMMX)
02/02/2022 CPX3152 B762 Benito Juárez Intl (MMMX)